sensor_id;sensor_type;location;lat;lon;timestamp;P1;durP1;ratioP1;P2;durP2;ratioP2
70487;SDS011;57976;48.174;16.370;2024-01-15T00:01:15;9.00;;;3.50;;
70487;SDS011;57976;48.174;16.370;2024-01-15T00:03:22;10.30;;;3.60;;
70487;SDS011;57976;48.174;16.370;2024-01-15T00:05:27;10.30;;;3.50;;
70487;SDS011;57976;48.174;16.370;2024-01-15T00:07:34;9.70;;;3.80;;
70487;SDS011;57976;48.174;16.370;2024-01-15T00:09:39;9.50;;;3.40;;
70487;SDS011;57976;48.174;16.370;2024-01-15T00:11:44;9.50;;;3.80;;
70487;SDS011;57976;48.174;16.370;2024-01-15T00:13:49;12.80;;;4.70;;
70487;SDS011;57976;48.174;16.370;2024-01-15T00:15:53;11.40;;;4.50;;
70487;SDS011;57976;48.174;16.370;2024-01-15T00:17:59;12.30;;;4.30;;
70487;SDS011;57976;48.174;16.370;2024-01-15T00:20:06;10.60;;;4.00;;
70487;SDS011;57976;48.174;16.370;2024-01-15T00:22:12;11.10;;;3.90;;
70487;SDS011;57976;48.174;16.370;2024-01-15T00:24:17;10.20;;;3.60;;
70487;SDS011;57976;48.174;16.370;2024-01-15T00:26:25;9.90;;;3.30;;
70487;SDS011;57976;48.174;16.370;2024-01-15T00:28:30;9.00;;;3.20;;
70487;SDS011;57976;48.174;16.370;2024-01-15T00:30:35;9.70;;;3.50;;
70487;SDS011;57976;48.174;16.370;2024-01-15T00:32:43;9.50;;;3.30;;
70487;SDS011;57976;48.174;16.370;2024-01-15T00:34:48;9.10;;;3.30;;
70487;SDS011;57976;48.174;16.370;2024-01-15T00:36:55;9.30;;;3.40;;
70487;SDS011;57976;48.174;16.370;2024-01-15T00:39:00;8.20;;;3.00;;
70487;SDS011;57976;48.174;16.370;2024-01-15T00:41:07;9.60;;;3.40;;
70487;SDS011;57976;48.174;16.370;2024-01-15T00:43:12;9.30;;;3.10;;
70487;SDS011;57976;48.174;16.370;2024-01-15T00:45:17;8.80;;;3.00;;
70487;SDS011;57976;48.174;16.370;2024-01-15T00:47:22;9.00;;;3.20;;
70487;SDS011;57976;48.174;16.370;2024-01-15T00:49:27;9.50;;;3.20;;
70487;SDS011;57976;48.174;16.370;2024-01-15T00:51:36;9.60;;;3.30;;
70487;SDS011;57976;48.174;16.370;2024-01-15T00:53:41;9.20;;;3.50;;
70487;SDS011;57976;48.174;16.370;2024-01-15T00:55:46;10.60;;;3.60;;
70487;SDS011;57976;48.174;16.370;2024-01-15T00:57:54;10.00;;;3.70;;
70487;SDS011;57976;48.174;16.370;2024-01-15T01:00:01;11.10;;;3.90;;
70487;SDS011;57976;48.174;16.370;2024-01-15T01:02:11;9.90;;;4.00;;
70487;SDS011;57976;48.174;16.370;2024-01-15T01:04:16;10.30;;;4.10;;
70487;SDS011;57976;48.174;16.370;2024-01-15T01:06:21;9.60;;;3.70;;
70487;SDS011;57976;48.174;16.370;2024-01-15T01:08:26;10.30;;;4.10;;
70487;SDS011;57976;48.174;16.370;2024-01-15T01:10:34;10.00;;;3.70;;
70487;SDS011;57976;48.174;16.370;2024-01-15T01:12:38;10.70;;;4.00;;
70487;SDS011;57976;48.174;16.370;2024-01-15T01:14:43;9.50;;;3.50;;
70487;SDS011;57976;48.174;16.370;2024-01-15T01:16:48;9.30;;;3.10;;
70487;SDS011;57976;48.174;16.370;2024-01-15T01:18:52;10.80;;;3.90;;
70487;SDS011;57976;48.174;16.370;2024-01-15T01:20:58;9.50;;;3.30;;
70487;SDS011;57976;48.174;16.370;2024-01-15T01:23:03;10.10;;;3.60;;
70487;SDS011;57976;48.174;16.370;2024-01-15T01:25:08;9.50;;;3.50;;
70487;SDS011;57976;48.174;16.370;2024-01-15T01:27:13;9.10;;;3.50;;
70487;SDS011;57976;48.174;16.370;2024-01-15T01:29:18;9.30;;;3.20;;
70487;SDS011;57976;48.174;16.370;2024-01-15T01:31:22;10.40;;;3.80;;
70487;SDS011;57976;48.174;16.370;2024-01-15T01:33:31;9.90;;;3.40;;
70487;SDS011;57976;48.174;16.370;2024-01-15T01:35:39;10.60;;;3.70;;
70487;SDS011;57976;48.174;16.370;2024-01-15T01:37:43;10.50;;;3.50;;
70487;SDS011;57976;48.174;16.370;2024-01-15T01:39:48;9.30;;;3.60;;
70487;SDS011;57976;48.174;16.370;2024-01-15T01:41:53;9.70;;;3.40;;
70487;SDS011;57976;48.174;16.370;2024-01-15T01:44:00;9.60;;;3.20;;
70487;SDS011;57976;48.174;16.370;2024-01-15T01:46:05;9.10;;;3.50;;
70487;SDS011;57976;48.174;16.370;2024-01-15T01:48:11;10.60;;;3.80;;
70487;SDS011;57976;48.174;16.370;2024-01-15T01:50:16;9.90;;;3.60;;
70487;SDS011;57976;48.174;16.370;2024-01-15T01:52:21;9.60;;;3.80;;
70487;SDS011;57976;48.174;16.370;2024-01-15T01:54:29;11.20;;;4.00;;
70487;SDS011;57976;48.174;16.370;2024-01-15T01:56:35;11.00;;;3.50;;
70487;SDS011;57976;48.174;16.370;2024-01-15T01:58:40;10.00;;;3.80;;
70487;SDS011;57976;48.174;16.370;2024-01-15T02:00:45;11.40;;;4.20;;
70487;SDS011;57976;48.174;16.370;2024-01-15T02:02:50;10.40;;;3.80;;
70487;SDS011;57976;48.174;16.370;2024-01-15T02:04:55;10.60;;;4.30;;
70487;SDS011;57976;48.174;16.370;2024-01-15T02:07:01;10.60;;;4.20;;
70487;SDS011;57976;48.174;16.370;2024-01-15T02:09:07;11.90;;;4.20;;
70487;SDS011;57976;48.174;16.370;2024-01-15T02:11:14;12.40;;;4.70;;
70487;SDS011;57976;48.174;16.370;2024-01-15T02:13:19;11.80;;;4.10;;
70487;SDS011;57976;48.174;16.370;2024-01-15T02:15:26;11.90;;;4.90;;
70487;SDS011;57976;48.174;16.370;2024-01-15T02:17:31;11.60;;;4.30;;
70487;SDS011;57976;48.174;16.370;2024-01-15T02:19:35;11.60;;;4.20;;
70487;SDS011;57976;48.174;16.370;2024-01-15T02:21:43;11.70;;;4.50;;
70487;SDS011;57976;48.174;16.370;2024-01-15T02:23:49;11.90;;;4.40;;
70487;SDS011;57976;48.174;16.370;2024-01-15T02:25:54;11.60;;;4.50;;
70487;SDS011;57976;48.174;16.370;2024-01-15T02:28:02;12.00;;;4.20;;
70487;SDS011;57976;48.174;16.370;2024-01-15T02:30:14;13.00;;;4.10;;
70487;SDS011;57976;48.174;16.370;2024-01-15T02:32:20;12.00;;;4.50;;
70487;SDS011;57976;48.174;16.370;2024-01-15T02:34:29;11.40;;;4.30;;
70487;SDS011;57976;48.174;16.370;2024-01-15T02:36:35;11.90;;;4.00;;
70487;SDS011;57976;48.174;16.370;2024-01-15T02:38:42;10.40;;;3.90;;
70487;SDS011;57976;48.174;16.370;2024-01-15T02:40:47;11.10;;;4.00;;
70487;SDS011;57976;48.174;16.370;2024-01-15T02:42:53;12.50;;;4.30;;
70487;SDS011;57976;48.174;16.370;2024-01-15T02:45:01;10.40;;;4.10;;
70487;SDS011;57976;48.174;16.370;2024-01-15T02:47:06;11.30;;;4.50;;
70487;SDS011;57976;48.174;16.370;2024-01-15T02:49:16;11.60;;;4.60;;
70487;SDS011;57976;48.174;16.370;2024-01-15T02:51:21;11.60;;;4.30;;
70487;SDS011;57976;48.174;16.370;2024-01-15T02:53:25;13.10;;;4.90;;
70487;SDS011;57976;48.174;16.370;2024-01-15T02:55:30;12.60;;;4.80;;
70487;SDS011;57976;48.174;16.370;2024-01-15T02:57:38;14.00;;;5.40;;
70487;SDS011;57976;48.174;16.370;2024-01-15T02:59:45;14.00;;;5.10;;
70487;SDS011;57976;48.174;16.370;2024-01-15T03:01:50;13.30;;;4.60;;
70487;SDS011;57976;48.174;16.370;2024-01-15T03:03:56;13.40;;;5.10;;
70487;SDS011;57976;48.174;16.370;2024-01-15T03:06:01;14.70;;;5.20;;
70487;SDS011;57976;48.174;16.370;2024-01-15T03:08:06;14.20;;;5.30;;
70487;SDS011;57976;48.174;16.370;2024-01-15T03:10:12;13.40;;;5.10;;
70487;SDS011;57976;48.174;16.370;2024-01-15T03:12:17;12.80;;;5.00;;
70487;SDS011;57976;48.174;16.370;2024-01-15T03:14:22;13.10;;;4.80;;
70487;SDS011;57976;48.174;16.370;2024-01-15T03:16:28;13.90;;;5.30;;
70487;SDS011;57976;48.174;16.370;2024-01-15T03:18:33;13.50;;;4.70;;
70487;SDS011;57976;48.174;16.370;2024-01-15T03:20:39;13.10;;;5.00;;
70487;SDS011;57976;48.174;16.370;2024-01-15T03:22:45;13.50;;;5.00;;
70487;SDS011;57976;48.174;16.370;2024-01-15T03:24:52;14.20;;;5.40;;
70487;SDS011;57976;48.174;16.370;2024-01-15T03:26:59;13.00;;;5.00;;
70487;SDS011;57976;48.174;16.370;2024-01-15T03:29:04;12.90;;;5.20;;
70487;SDS011;57976;48.174;16.370;2024-01-15T03:31:13;14.10;;;5.30;;
70487;SDS011;57976;48.174;16.370;2024-01-15T03:33:18;13.10;;;5.00;;
70487;SDS011;57976;48.174;16.370;2024-01-15T03:35:23;13.60;;;5.30;;
70487;SDS011;57976;48.174;16.370;2024-01-15T03:37:27;13.30;;;5.00;;
70487;SDS011;57976;48.174;16.370;2024-01-15T03:39:35;14.40;;;5.20;;
70487;SDS011;57976;48.174;16.370;2024-01-15T03:41:44;12.60;;;5.40;;
70487;SDS011;57976;48.174;16.370;2024-01-15T03:43:49;13.00;;;5.00;;
70487;SDS011;57976;48.174;16.370;2024-01-15T03:45:56;14.40;;;5.60;;
70487;SDS011;57976;48.174;16.370;2024-01-15T03:48:01;13.90;;;5.50;;
70487;SDS011;57976;48.174;16.370;2024-01-15T03:50:07;14.00;;;5.30;;
70487;SDS011;57976;48.174;16.370;2024-01-15T03:52:12;13.00;;;5.80;;
70487;SDS011;57976;48.174;16.370;2024-01-15T03:54:21;14.00;;;5.70;;
70487;SDS011;57976;48.174;16.370;2024-01-15T03:56:27;14.40;;;5.90;;
70487;SDS011;57976;48.174;16.370;2024-01-15T03:58:37;14.70;;;5.90;;
70487;SDS011;57976;48.174;16.370;2024-01-15T04:00:43;15.10;;;5.90;;
70487;SDS011;57976;48.174;16.370;2024-01-15T04:02:47;15.60;;;6.10;;
70487;SDS011;57976;48.174;16.370;2024-01-15T04:04:52;14.90;;;5.80;;
70487;SDS011;57976;48.174;16.370;2024-01-15T04:06:57;16.60;;;6.20;;
70487;SDS011;57976;48.174;16.370;2024-01-15T04:09:02;16.00;;;6.40;;
70487;SDS011;57976;48.174;16.370;2024-01-15T04:11:10;14.80;;;6.30;;
70487;SDS011;57976;48.174;16.370;2024-01-15T04:13:16;14.60;;;5.90;;
70487;SDS011;57976;48.174;16.370;2024-01-15T04:15:20;16.20;;;6.20;;
70487;SDS011;57976;48.174;16.370;2024-01-15T04:17:26;14.00;;;5.70;;
70487;SDS011;57976;48.174;16.370;2024-01-15T04:19:34;16.10;;;6.40;;
70487;SDS011;57976;48.174;16.370;2024-01-15T04:21:40;15.00;;;6.20;;
70487;SDS011;57976;48.174;16.370;2024-01-15T04:23:45;14.40;;;6.20;;
70487;SDS011;57976;48.174;16.370;2024-01-15T04:25:53;14.40;;;6.00;;
70487;SDS011;57976;48.174;16.370;2024-01-15T04:28:01;14.30;;;5.80;;
70487;SDS011;57976;48.174;16.370;2024-01-15T04:30:07;13.80;;;5.90;;
70487;SDS011;57976;48.174;16.370;2024-01-15T04:32:13;14.70;;;5.90;;
70487;SDS011;57976;48.174;16.370;2024-01-15T04:34:20;15.50;;;6.20;;
70487;SDS011;57976;48.174;16.370;2024-01-15T04:36:28;16.30;;;5.50;;
70487;SDS011;57976;48.174;16.370;2024-01-15T04:38:33;12.90;;;5.30;;
70487;SDS011;57976;48.174;16.370;2024-01-15T04:40:41;13.60;;;5.60;;
70487;SDS011;57976;48.174;16.370;2024-01-15T04:42:46;15.50;;;6.00;;
70487;SDS011;57976;48.174;16.370;2024-01-15T04:44:54;13.90;;;5.80;;
70487;SDS011;57976;48.174;16.370;2024-01-15T04:47:04;13.50;;;5.90;;
70487;SDS011;57976;48.174;16.370;2024-01-15T04:49:09;12.60;;;5.30;;
70487;SDS011;57976;48.174;16.370;2024-01-15T04:51:15;15.70;;;6.50;;
70487;SDS011;57976;48.174;16.370;2024-01-15T04:53:22;14.60;;;6.50;;
70487;SDS011;57976;48.174;16.370;2024-01-15T04:55:27;15.70;;;6.20;;
70487;SDS011;57976;48.174;16.370;2024-01-15T04:57:31;15.50;;;6.40;;
70487;SDS011;57976;48.174;16.370;2024-01-15T04:59:36;15.20;;;6.20;;
70487;SDS011;57976;48.174;16.370;2024-01-15T05:01:44;15.30;;;6.80;;
70487;SDS011;57976;48.174;16.370;2024-01-15T05:03:49;15.80;;;6.30;;
70487;SDS011;57976;48.174;16.370;2024-01-15T05:05:54;16.40;;;7.00;;
70487;SDS011;57976;48.174;16.370;2024-01-15T05:08:05;17.20;;;6.90;;
70487;SDS011;57976;48.174;16.370;2024-01-15T05:10:15;15.10;;;6.40;;
70487;SDS011;57976;48.174;16.370;2024-01-15T05:12:21;16.80;;;6.80;;
70487;SDS011;57976;48.174;16.370;2024-01-15T05:14:28;17.60;;;7.20;;
70487;SDS011;57976;48.174;16.370;2024-01-15T05:16:36;16.80;;;6.40;;
70487;SDS011;57976;48.174;16.370;2024-01-15T05:18:42;16.80;;;6.90;;
70487;SDS011;57976;48.174;16.370;2024-01-15T05:20:50;16.80;;;6.60;;
70487;SDS011;57976;48.174;16.370;2024-01-15T05:22:55;15.70;;;6.50;;
70487;SDS011;57976;48.174;16.370;2024-01-15T05:25:04;15.40;;;6.80;;
70487;SDS011;57976;48.174;16.370;2024-01-15T05:27:10;15.20;;;6.50;;
70487;SDS011;57976;48.174;16.370;2024-01-15T05:29:15;15.80;;;5.90;;
70487;SDS011;57976;48.174;16.370;2024-01-15T05:31:20;17.20;;;6.60;;
70487;SDS011;57976;48.174;16.370;2024-01-15T05:33:26;15.80;;;6.30;;
70487;SDS011;57976;48.174;16.370;2024-01-15T05:35:34;15.50;;;6.30;;
70487;SDS011;57976;48.174;16.370;2024-01-15T05:37:41;15.00;;;5.70;;
70487;SDS011;57976;48.174;16.370;2024-01-15T05:39:51;15.60;;;6.30;;
70487;SDS011;57976;48.174;16.370;2024-01-15T05:41:57;15.90;;;6.10;;
70487;SDS011;57976;48.174;16.370;2024-01-15T05:44:04;14.70;;;6.00;;
70487;SDS011;57976;48.174;16.370;2024-01-15T05:46:15;16.10;;;6.50;;
70487;SDS011;57976;48.174;16.370;2024-01-15T05:48:20;16.10;;;5.90;;
70487;SDS011;57976;48.174;16.370;2024-01-15T05:50:25;15.80;;;5.90;;
70487;SDS011;57976;48.174;16.370;2024-01-15T05:52:30;14.90;;;6.00;;
70487;SDS011;57976;48.174;16.370;2024-01-15T05:54:36;14.60;;;6.00;;
70487;SDS011;57976;48.174;16.370;2024-01-15T05:56:40;13.40;;;5.60;;
70487;SDS011;57976;48.174;16.370;2024-01-15T05:58:52;13.20;;;5.80;;
70487;SDS011;57976;48.174;16.370;2024-01-15T06:00:58;14.10;;;5.80;;
70487;SDS011;57976;48.174;16.370;2024-01-15T06:03:03;14.00;;;5.10;;
70487;SDS011;57976;48.174;16.370;2024-01-15T06:05:09;11.80;;;4.60;;
70487;SDS011;57976;48.174;16.370;2024-01-15T06:07:16;14.00;;;5.60;;
70487;SDS011;57976;48.174;16.370;2024-01-15T06:09:21;13.10;;;5.30;;
70487;SDS011;57976;48.174;16.370;2024-01-15T06:11:30;13.00;;;4.70;;
70487;SDS011;57976;48.174;16.370;2024-01-15T06:13:37;12.80;;;5.20;;
70487;SDS011;57976;48.174;16.370;2024-01-15T06:15:42;13.20;;;5.20;;
70487;SDS011;57976;48.174;16.370;2024-01-15T06:17:48;14.60;;;5.70;;
70487;SDS011;57976;48.174;16.370;2024-01-15T06:19:52;13.40;;;5.50;;
70487;SDS011;57976;48.174;16.370;2024-01-15T06:22:00;14.40;;;5.80;;
70487;SDS011;57976;48.174;16.370;2024-01-15T06:24:06;14.60;;;5.40;;
70487;SDS011;57976;48.174;16.370;2024-01-15T06:26:12;13.90;;;5.80;;
70487;SDS011;57976;48.174;16.370;2024-01-15T06:28:17;15.20;;;6.00;;
70487;SDS011;57976;48.174;16.370;2024-01-15T06:30:25;13.00;;;5.70;;
70487;SDS011;57976;48.174;16.370;2024-01-15T06:32:30;14.60;;;5.50;;
70487;SDS011;57976;48.174;16.370;2024-01-15T06:34:35;14.70;;;5.60;;
70487;SDS011;57976;48.174;16.370;2024-01-15T06:36:40;13.30;;;5.20;;
70487;SDS011;57976;48.174;16.370;2024-01-15T06:38:45;15.10;;;5.80;;
70487;SDS011;57976;48.174;16.370;2024-01-15T06:40:50;15.50;;;6.20;;
70487;SDS011;57976;48.174;16.370;2024-01-15T06:42:59;14.60;;;6.10;;
70487;SDS011;57976;48.174;16.370;2024-01-15T06:45:04;14.40;;;5.60;;
70487;SDS011;57976;48.174;16.370;2024-01-15T06:47:13;15.50;;;5.90;;
70487;SDS011;57976;48.174;16.370;2024-01-15T06:49:21;13.70;;;5.00;;
70487;SDS011;57976;48.174;16.370;2024-01-15T06:51:29;14.00;;;5.70;;
70487;SDS011;57976;48.174;16.370;2024-01-15T06:53:39;15.20;;;5.80;;
70487;SDS011;57976;48.174;16.370;2024-01-15T06:55:48;14.50;;;6.10;;
70487;SDS011;57976;48.174;16.370;2024-01-15T06:57:53;13.30;;;5.20;;
70487;SDS011;57976;48.174;16.370;2024-01-15T06:59:58;15.20;;;5.60;;
70487;SDS011;57976;48.174;16.370;2024-01-15T07:02:06;13.40;;;5.70;;
70487;SDS011;57976;48.174;16.370;2024-01-15T07:04:15;12.60;;;4.80;;
70487;SDS011;57976;48.174;16.370;2024-01-15T07:06:21;13.10;;;4.90;;
70487;SDS011;57976;48.174;16.370;2024-01-15T07:08:26;11.90;;;5.30;;
70487;SDS011;57976;48.174;16.370;2024-01-15T07:10:31;12.70;;;5.10;;
70487;SDS011;57976;48.174;16.370;2024-01-15T07:12:39;11.60;;;4.70;;
70487;SDS011;57976;48.174;16.370;2024-01-15T07:14:46;12.80;;;4.90;;
70487;SDS011;57976;48.174;16.370;2024-01-15T07:16:50;10.90;;;4.50;;
70487;SDS011;57976;48.174;16.370;2024-01-15T07:18:56;11.90;;;4.40;;
70487;SDS011;57976;48.174;16.370;2024-01-15T07:21:00;13.20;;;4.80;;
70487;SDS011;57976;48.174;16.370;2024-01-15T07:23:08;12.30;;;4.40;;
70487;SDS011;57976;48.174;16.370;2024-01-15T07:25:13;12.20;;;4.70;;
70487;SDS011;57976;48.174;16.370;2024-01-15T07:27:21;11.40;;;4.60;;
70487;SDS011;57976;48.174;16.370;2024-01-15T07:29:26;11.90;;;4.50;;
70487;SDS011;57976;48.174;16.370;2024-01-15T07:31:30;12.60;;;4.90;;
70487;SDS011;57976;48.174;16.370;2024-01-15T07:33:39;12.40;;;5.00;;
70487;SDS011;57976;48.174;16.370;2024-01-15T07:35:45;12.80;;;5.10;;
70487;SDS011;57976;48.174;16.370;2024-01-15T07:37:50;11.60;;;4.70;;
70487;SDS011;57976;48.174;16.370;2024-01-15T07:39:59;12.70;;;4.90;;
70487;SDS011;57976;48.174;16.370;2024-01-15T07:42:04;11.70;;;4.80;;
70487;SDS011;57976;48.174;16.370;2024-01-15T07:44:09;11.70;;;4.60;;
70487;SDS011;57976;48.174;16.370;2024-01-15T07:46:14;10.60;;;4.00;;
70487;SDS011;57976;48.174;16.370;2024-01-15T07:48:22;12.70;;;4.70;;
70487;SDS011;57976;48.174;16.370;2024-01-15T07:50:29;12.80;;;4.80;;
70487;SDS011;57976;48.174;16.370;2024-01-15T07:52:35;11.30;;;4.60;;
70487;SDS011;57976;48.174;16.370;2024-01-15T07:54:43;12.30;;;4.50;;
70487;SDS011;57976;48.174;16.370;2024-01-15T07:56:54;10.90;;;4.30;;
70487;SDS011;57976;48.174;16.370;2024-01-15T07:59:00;10.80;;;4.10;;
70487;SDS011;57976;48.174;16.370;2024-01-15T08:01:11;13.20;;;4.60;;
70487;SDS011;57976;48.174;16.370;2024-01-15T08:03:21;11.70;;;4.40;;
70487;SDS011;57976;48.174;16.370;2024-01-15T08:05:27;10.60;;;4.50;;
70487;SDS011;57976;48.174;16.370;2024-01-15T08:07:32;10.80;;;4.10;;
70487;SDS011;57976;48.174;16.370;2024-01-15T08:09:37;11.90;;;4.50;;
70487;SDS011;57976;48.174;16.370;2024-01-15T08:11:41;12.20;;;4.30;;
70487;SDS011;57976;48.174;16.370;2024-01-15T08:13:52;12.70;;;4.80;;
70487;SDS011;57976;48.174;16.370;2024-01-15T08:15:57;12.00;;;4.80;;
70487;SDS011;57976;48.174;16.370;2024-01-15T08:18:03;12.30;;;4.40;;
70487;SDS011;57976;48.174;16.370;2024-01-15T08:20:11;11.50;;;4.60;;
70487;SDS011;57976;48.174;16.370;2024-01-15T08:22:16;11.30;;;4.50;;
70487;SDS011;57976;48.174;16.370;2024-01-15T08:24:21;11.10;;;4.60;;
70487;SDS011;57976;48.174;16.370;2024-01-15T08:26:26;11.30;;;4.60;;
70487;SDS011;57976;48.174;16.370;2024-01-15T08:28:30;10.70;;;4.20;;
70487;SDS011;57976;48.174;16.370;2024-01-15T08:30:38;10.60;;;4.00;;
70487;SDS011;57976;48.174;16.370;2024-01-15T08:32:42;11.80;;;4.60;;
70487;SDS011;57976;48.174;16.370;2024-01-15T08:34:54;10.60;;;4.20;;
70487;SDS011;57976;48.174;16.370;2024-01-15T08:36:59;11.50;;;4.30;;
70487;SDS011;57976;48.174;16.370;2024-01-15T08:39:05;11.30;;;4.40;;
70487;SDS011;57976;48.174;16.370;2024-01-15T08:41:11;11.00;;;4.10;;
70487;SDS011;57976;48.174;16.370;2024-01-15T08:43:19;9.90;;;3.80;;
70487;SDS011;57976;48.174;16.370;2024-01-15T08:45:24;10.40;;;4.30;;
70487;SDS011;57976;48.174;16.370;2024-01-15T08:47:31;9.80;;;4.00;;
70487;SDS011;57976;48.174;16.370;2024-01-15T08:49:38;10.60;;;4.10;;
70487;SDS011;57976;48.174;16.370;2024-01-15T08:51:43;9.80;;;3.90;;
70487;SDS011;57976;48.174;16.370;2024-01-15T08:53:49;11.00;;;4.00;;
70487;SDS011;57976;48.174;16.370;2024-01-15T08:56:00;10.20;;;3.90;;
70487;SDS011;57976;48.174;16.370;2024-01-15T08:58:08;9.40;;;3.60;;
70487;SDS011;57976;48.174;16.370;2024-01-15T09:00:15;11.30;;;3.80;;
70487;SDS011;57976;48.174;16.370;2024-01-15T09:02:24;9.80;;;3.80;;
70487;SDS011;57976;48.174;16.370;2024-01-15T09:04:29;10.30;;;4.10;;
70487;SDS011;57976;48.174;16.370;2024-01-15T09:06:37;9.70;;;3.70;;
70487;SDS011;57976;48.174;16.370;2024-01-15T09:08:42;10.00;;;3.80;;
70487;SDS011;57976;48.174;16.370;2024-01-15T09:10:47;9.40;;;4.00;;
70487;SDS011;57976;48.174;16.370;2024-01-15T09:12:55;10.10;;;3.80;;
70487;SDS011;57976;48.174;16.370;2024-01-15T09:15:00;11.10;;;4.30;;
70487;SDS011;57976;48.174;16.370;2024-01-15T09:17:06;11.60;;;4.00;;
70487;SDS011;57976;48.174;16.370;2024-01-15T09:19:11;9.60;;;3.70;;
70487;SDS011;57976;48.174;16.370;2024-01-15T09:21:18;10.00;;;3.50;;
70487;SDS011;57976;48.174;16.370;2024-01-15T09:23:23;9.50;;;3.50;;
70487;SDS011;57976;48.174;16.370;2024-01-15T09:25:31;9.00;;;3.60;;
70487;SDS011;57976;48.174;16.370;2024-01-15T09:27:36;9.70;;;3.90;;
70487;SDS011;57976;48.174;16.370;2024-01-15T09:29:44;8.70;;;3.70;;
70487;SDS011;57976;48.174;16.370;2024-01-15T09:31:48;9.40;;;3.70;;
70487;SDS011;57976;48.174;16.370;2024-01-15T09:33:53;8.60;;;3.10;;
70487;SDS011;57976;48.174;16.370;2024-01-15T09:36:00;8.10;;;3.50;;
70487;SDS011;57976;48.174;16.370;2024-01-15T09:38:09;11.30;;;3.40;;
70487;SDS011;57976;48.174;16.370;2024-01-15T09:40:15;9.10;;;3.70;;
70487;SDS011;57976;48.174;16.370;2024-01-15T09:42:20;8.10;;;3.30;;
70487;SDS011;57976;48.174;16.370;2024-01-15T09:44:29;9.70;;;3.40;;
70487;SDS011;57976;48.174;16.370;2024-01-15T09:46:34;9.40;;;3.80;;
70487;SDS011;57976;48.174;16.370;2024-01-15T09:48:39;10.10;;;3.70;;
70487;SDS011;57976;48.174;16.370;2024-01-15T09:50:44;8.40;;;3.50;;
70487;SDS011;57976;48.174;16.370;2024-01-15T09:52:49;9.80;;;3.30;;
70487;SDS011;57976;48.174;16.370;2024-01-15T09:54:54;8.50;;;3.40;;
70487;SDS011;57976;48.174;16.370;2024-01-15T09:57:01;10.90;;;3.70;;
70487;SDS011;57976;48.174;16.370;2024-01-15T09:59:08;10.60;;;3.30;;
70487;SDS011;57976;48.174;16.370;2024-01-15T10:01:20;8.90;;;3.50;;
70487;SDS011;57976;48.174;16.370;2024-01-15T10:03:25;8.70;;;3.20;;
70487;SDS011;57976;48.174;16.370;2024-01-15T10:05:33;9.00;;;3.30;;
70487;SDS011;57976;48.174;16.370;2024-01-15T10:07:40;8.70;;;3.10;;
70487;SDS011;57976;48.174;16.370;2024-01-15T10:09:45;9.20;;;3.30;;
70487;SDS011;57976;48.174;16.370;2024-01-15T10:11:53;9.60;;;3.80;;
70487;SDS011;57976;48.174;16.370;2024-01-15T10:13:58;9.30;;;3.20;;
70487;SDS011;57976;48.174;16.370;2024-01-15T10:16:04;8.40;;;3.30;;
70487;SDS011;57976;48.174;16.370;2024-01-15T10:18:15;8.00;;;3.00;;
70487;SDS011;57976;48.174;16.370;2024-01-15T10:20:20;8.00;;;3.00;;
70487;SDS011;57976;48.174;16.370;2024-01-15T10:22:28;8.90;;;3.50;;
70487;SDS011;57976;48.174;16.370;2024-01-15T10:24:32;8.40;;;3.10;;
70487;SDS011;57976;48.174;16.370;2024-01-15T10:26:37;7.90;;;3.10;;
70487;SDS011;57976;48.174;16.370;2024-01-15T10:28:45;9.40;;;3.00;;
70487;SDS011;57976;48.174;16.370;2024-01-15T10:30:56;8.10;;;3.00;;
70487;SDS011;57976;48.174;16.370;2024-01-15T10:33:02;9.80;;;3.60;;
70487;SDS011;57976;48.174;16.370;2024-01-15T10:35:08;8.70;;;3.30;;
70487;SDS011;57976;48.174;16.370;2024-01-15T10:37:15;8.60;;;3.30;;
70487;SDS011;57976;48.174;16.370;2024-01-15T10:39:20;10.70;;;3.30;;
70487;SDS011;57976;48.174;16.370;2024-01-15T10:41:26;7.10;;;2.50;;
70487;SDS011;57976;48.174;16.370;2024-01-15T10:43:31;7.70;;;2.60;;
70487;SDS011;57976;48.174;16.370;2024-01-15T10:45:37;7.90;;;2.80;;
70487;SDS011;57976;48.174;16.370;2024-01-15T10:47:42;7.70;;;2.60;;
70487;SDS011;57976;48.174;16.370;2024-01-15T10:49:50;7.10;;;2.30;;
70487;SDS011;57976;48.174;16.370;2024-01-15T10:51:55;7.30;;;2.60;;
70487;SDS011;57976;48.174;16.370;2024-01-15T10:54:00;8.20;;;2.50;;
70487;SDS011;57976;48.174;16.370;2024-01-15T10:56:07;7.10;;;2.70;;
70487;SDS011;57976;48.174;16.370;2024-01-15T10:58:13;7.70;;;2.40;;
70487;SDS011;57976;48.174;16.370;2024-01-15T11:00:19;6.30;;;2.40;;
70487;SDS011;57976;48.174;16.370;2024-01-15T11:02:25;7.90;;;2.50;;
70487;SDS011;57976;48.174;16.370;2024-01-15T11:04:31;8.40;;;2.60;;
70487;SDS011;57976;48.174;16.370;2024-01-15T11:06:44;7.80;;;2.70;;
70487;SDS011;57976;48.174;16.370;2024-01-15T11:08:53;6.60;;;2.30;;
70487;SDS011;57976;48.174;16.370;2024-01-15T11:10:58;7.20;;;2.50;;
70487;SDS011;57976;48.174;16.370;2024-01-15T11:13:09;8.60;;;2.40;;
70487;SDS011;57976;48.174;16.370;2024-01-15T11:15:17;7.70;;;2.80;;
70487;SDS011;57976;48.174;16.370;2024-01-15T11:17:24;7.90;;;2.50;;
70487;SDS011;57976;48.174;16.370;2024-01-15T11:19:36;7.60;;;2.60;;
70487;SDS011;57976;48.174;16.370;2024-01-15T11:21:45;7.90;;;2.40;;
70487;SDS011;57976;48.174;16.370;2024-01-15T11:23:51;7.70;;;2.80;;
70487;SDS011;57976;48.174;16.370;2024-01-15T11:26:00;9.50;;;2.60;;
70487;SDS011;57976;48.174;16.370;2024-01-15T11:28:05;8.10;;;2.60;;
70487;SDS011;57976;48.174;16.370;2024-01-15T11:30:10;8.00;;;2.70;;
70487;SDS011;57976;48.174;16.370;2024-01-15T11:32:16;8.00;;;2.90;;
70487;SDS011;57976;48.174;16.370;2024-01-15T11:34:21;7.50;;;2.70;;
70487;SDS011;57976;48.174;16.370;2024-01-15T11:37:02;7.40;;;2.60;;
70487;SDS011;57976;48.174;16.370;2024-01-15T11:41:46;7.60;;;2.40;;
70487;SDS011;57976;48.174;16.370;2024-01-15T11:43:52;8.20;;;3.20;;
70487;SDS011;57976;48.174;16.370;2024-01-15T11:45:59;8.60;;;3.00;;
70487;SDS011;57976;48.174;16.370;2024-01-15T11:48:13;7.70;;;2.70;;
70487;SDS011;57976;48.174;16.370;2024-01-15T11:50:20;7.50;;;2.60;;
70487;SDS011;57976;48.174;16.370;2024-01-15T11:52:32;8.30;;;2.90;;
70487;SDS011;57976;48.174;16.370;2024-01-15T11:54:38;10.50;;;2.80;;
70487;SDS011;57976;48.174;16.370;2024-01-15T11:56:47;8.60;;;2.80;;
70487;SDS011;57976;48.174;16.370;2024-01-15T11:58:55;6.90;;;2.40;;
70487;SDS011;57976;48.174;16.370;2024-01-15T12:01:06;7.00;;;2.60;;
70487;SDS011;57976;48.174;16.370;2024-01-15T12:03:18;8.60;;;3.00;;
70487;SDS011;57976;48.174;16.370;2024-01-15T12:05:26;7.30;;;2.70;;
70487;SDS011;57976;48.174;16.370;2024-01-15T12:07:31;7.40;;;2.70;;
70487;SDS011;57976;48.174;16.370;2024-01-15T12:09:36;7.70;;;2.80;;
70487;SDS011;57976;48.174;16.370;2024-01-15T12:11:49;7.20;;;2.40;;
70487;SDS011;57976;48.174;16.370;2024-01-15T12:13:59;7.60;;;2.90;;
70487;SDS011;57976;48.174;16.370;2024-01-15T12:16:04;8.00;;;3.20;;
70487;SDS011;57976;48.174;16.370;2024-01-15T12:18:10;7.60;;;2.80;;
70487;SDS011;57976;48.174;16.370;2024-01-15T12:20:20;7.70;;;3.10;;
70487;SDS011;57976;48.174;16.370;2024-01-15T12:22:31;7.60;;;2.60;;
70487;SDS011;57976;48.174;16.370;2024-01-15T12:24:59;6.60;;;2.00;;
70487;SDS011;57976;48.174;16.370;2024-01-15T12:27:04;6.70;;;2.40;;